Time;durP1;ratioP1;P1;durP2;ratioP2;P2;SDS_P1;SDS_P2;PMS_P1;PMS_P2;Temp;Humidity;BMP_temperature;BMP_pressure;BME280_temperature;BME280_humidity;BME280_pressure;Samples;Min_cycle;Max_cycle;Signal;HPM_P1;HPM_P2
2023/08/06 00:01:51;;;;;;;20.50;13.10;;;;;;;19.36;100.00;99410.67;103835;278;39453;-76
2023/08/06 00:04:26;;;;;;;16.90;12.50;;;;;;;19.35;100.00;99405.73;103856;277;38740;-76
2023/08/06 00:07:00;;;;;;;19.20;13.20;;;;;;;19.37;100.00;99398.55;103695;278;39570;-76
2023/08/06 00:09:34;;;;;;;20.10;13.50;;;;;;;19.36;100.00;99396.29;103842;278;40019;-74
2023/08/06 00:12:13;;;;;;;19.60;13.40;;;;;;;19.34;100.00;99398.38;103813;278;39408;-74
2023/08/06 00:14:50;;;;;;;19.80;13.10;;;;;;;19.34;100.00;99412.56;103842;277;39526;-75
2023/08/06 00:17:27;;;;;;;20.10;13.70;;;;;;;19.37;100.00;99427.38;103816;277;38288;-76
2023/08/06 00:20:04;;;;;;;17.00;12.20;;;;;;;19.40;100.00;99432.20;103838;278;39019;-74
2023/08/06 00:22:41;;;;;;;17.80;12.50;;;;;;;19.43;100.00;99431.73;103833;277;38527;-74
2023/08/06 00:25:17;;;;;;;14.90;12.60;;;;;;;19.45;100.00;99427.27;103791;278;38510;-74
2023/08/06 00:27:51;;;;;;;15.80;12.10;;;;;;;19.50;100.00;99422.27;103699;278;174955;-76
2023/08/06 00:30:25;;;;;;;15.00;13.00;;;;;;;19.51;100.00;99420.91;103824;278;38542;-76
2023/08/06 00:33:01;;;;;;;15.10;12.70;;;;;;;19.54;100.00;99417.86;103649;278;38733;-76
2023/08/06 00:35:36;;;;;;;14.00;11.80;;;;;;;19.54;100.00;99410.17;103831;278;39457;-74
2023/08/06 00:38:10;;;;;;;14.40;12.70;;;;;;;19.54;100.00;99397.46;103839;278;38515;-73
2023/08/06 00:40:44;;;;;;;12.40;10.90;;;;;;;19.53;100.00;99391.05;103836;278;39987;-74
2023/08/06 00:43:21;;;;;;;12.20;10.70;;;;;;;19.53;100.00;99388.42;103815;278;38231;-74
2023/08/06 00:45:55;;;;;;;11.20;10.10;;;;;;;19.55;100.00;99380.19;103931;277;39123;-73
2023/08/06 00:48:29;;;;;;;10.60;9.40;;;;;;;19.55;100.00;99369.94;103901;277;39885;-73
2023/08/06 00:51:06;;;;;;;11.30;10.10;;;;;;;19.53;100.00;99370.45;103883;277;39648;-76
2023/08/06 00:53:41;;;;;;;11.60;10.50;;;;;;;19.52;100.00;99363.87;103883;277;39121;-75
2023/08/06 00:56:15;;;;;;;11.20;9.50;;;;;;;19.50;100.00;99349.96;103872;278;38867;-75
2023/08/06 00:58:49;;;;;;;10.90;9.60;;;;;;;19.48;100.00;99340.61;103578;277;171896;-75
2023/08/06 01:01:23;;;;;;;10.70;9.70;;;;;;;19.44;100.00;99323.99;103890;277;39582;-74
2023/08/06 01:03:57;;;;;;;10.00;9.10;;;;;;;19.41;100.00;99310.42;103939;277;38245;-73
2023/08/06 01:06:39;;;;;;;10.00;9.00;;;;;;;19.39;100.00;99301.26;103903;277;38505;-74
2023/08/06 01:09:23;;;;;;;10.30;9.40;;;;;;;19.38;100.00;99292.86;103928;277;39458;-75
2023/08/06 01:12:08;;;;;;;10.90;9.70;;;;;;;19.38;100.00;99288.22;103925;277;38227;-74
2023/08/06 01:14:47;;;;;;;11.00;9.90;;;;;;;19.39;100.00;99282.89;103928;278;38406;-74
2023/08/06 01:17:21;;;;;;;10.60;9.60;;;;;;;19.37;100.00;99272.77;103908;278;39464;-73
2023/08/06 01:19:55;;;;;;;9.90;8.90;;;;;;;19.34;100.00;99261.73;103926;277;38259;-75
2023/08/06 01:22:30;;;;;;;11.30;9.50;;;;;;;19.29;100.00;99250.98;103759;277;174947;-74
2023/08/06 01:25:06;;;;;;;9.70;8.80;;;;;;;19.28;100.00;99242.84;103935;277;39442;-74
2023/08/06 01:27:46;;;;;;;10.70;9.30;;;;;;;19.28;100.00;99223.57;103660;277;38376;-75
2023/08/06 01:30:24;;;;;;;10.10;9.10;;;;;;;19.30;100.00;99205.71;103912;277;38392;-77
2023/08/06 01:33:01;;;;;;;10.10;9.20;;;;;;;19.30;100.00;99195.79;103867;278;38701;-77
2023/08/06 01:35:38;;;;;;;9.90;8.90;;;;;;;19.32;100.00;99182.88;103942;277;39396;-74
2023/08/06 01:38:14;;;;;;;10.90;9.70;;;;;;;19.33;100.00;99178.19;103901;278;38627;-75
2023/08/06 01:40:48;;;;;;;10.20;9.10;;;;;;;19.32;100.00;99172.79;103797;278;39646;-76
2023/08/06 01:43:24;;;;;;;10.60;9.00;;;;;;;19.31;100.00;99162.23;103881;277;38516;-76
2023/08/06 01:45:58;;;;;;;9.60;8.80;;;;;;;19.32;100.00;99155.27;103974;278;38639;-74
2023/08/06 01:48:34;;;;;;;9.90;8.90;;;;;;;19.32;100.00;99150.33;103776;278;38265;-75
2023/08/06 01:51:09;;;;;;;10.00;9.00;;;;;;;19.32;100.00;99149.46;103628;277;174985;-74
2023/08/06 01:53:43;;;;;;;10.80;9.20;;;;;;;19.29;100.00;99144.08;103875;277;38764;-76
2023/08/06 01:56:20;;;;;;;10.20;9.00;;;;;;;19.28;100.00;99142.55;103875;278;39929;-76
2023/08/06 01:58:57;;;;;;;11.70;9.20;;;;;;;19.30;100.00;99141.00;103897;277;39705;-74
2023/08/06 02:01:32;;;;;;;10.80;9.70;;;;;;;19.30;100.00;99136.17;103886;277;38485;-74
2023/08/06 02:04:07;;;;;;;10.30;9.20;;;;;;;19.30;100.00;99138.63;103909;277;39701;-76
2023/08/06 02:06:41;;;;;;;9.50;8.30;;;;;;;19.31;100.00;99138.58;103869;278;39619;-77
2023/08/06 02:09:17;;;;;;;10.10;9.10;;;;;;;19.29;100.00;99134.84;103694;278;38706;-75
2023/08/06 02:11:51;;;;;;;9.70;8.80;;;;;;;19.27;100.00;99133.27;103852;277;38472;-74
2023/08/06 02:14:25;;;;;;;9.10;8.20;;;;;;;19.26;100.00;99133.37;103898;277;39127;-73
2023/08/06 02:17:00;;;;;;;8.20;7.40;;;;;;;19.26;100.00;99133.77;103712;277;38268;-75
2023/08/06 02:19:34;;;;;;;8.70;7.80;;;;;;;19.26;100.00;99125.63;103902;278;38236;-73
2023/08/06 02:22:11;;;;;;;9.60;7.90;;;;;;;19.27;100.00;99117.35;103892;278;38946;-74
2023/08/06 02:24:45;;;;;;;9.50;8.00;;;;;;;19.29;100.00;99109.92;103727;279;39848;-77
2023/08/06 02:27:19;;;;;;;8.40;7.60;;;;;;;19.29;100.00;99109.77;103818;274;39569;-77
2023/08/06 02:29:53;;;;;;;9.20;7.60;;;;;;;19.30;100.00;99106.86;103862;277;39469;-73
2023/08/06 02:32:29;;;;;;;8.20;7.40;;;;;;;19.28;100.00;99102.04;103839;277;38528;-75
2023/08/06 02:35:03;;;;;;;8.50;7.50;;;;;;;19.28;100.00;99105.08;103907;277;38338;-74
2023/08/06 02:37:38;;;;;;;8.80;7.30;;;;;;;19.28;100.00;99108.09;103831;277;38239;-73
2023/08/06 02:40:16;;;;;;;9.20;8.20;;;;;;;19.28;100.00;99115.65;103302;277;895451;-74
2023/08/06 02:42:49;;;;;;;9.20;7.70;;;;;;;19.28;100.00;99116.20;103875;277;39428;-75
2023/08/06 02:45:25;;;;;;;7.90;7.10;;;;;;;19.30;100.00;99112.46;103918;277;38402;-74
2023/08/06 02:48:05;;;;;;;8.70;8.00;;;;;;;19.31;100.00;99105.13;103877;278;38488;-75
2023/08/06 02:50:43;;;;;;;8.60;7.80;;;;;;;19.32;100.00;99100.27;103869;277;39366;-76
2023/08/06 02:53:16;;;;;;;;;;;;;;;19.32;100.00;99093.34;103861;277;39450;-75
2023/08/06 02:55:53;;;;;;;8.90;7.90;;;;;;;19.29;100.00;99085.88;103904;277;38234;-76
2023/08/06 02:58:26;;;;;;;9.50;8.60;;;;;;;19.30;100.00;99086.16;103887;277;39873;-77
2023/08/06 03:01:07;;;;;;;9.60;8.60;;;;;;;19.30;100.00;99079.08;103902;278;38228;-76
2023/08/06 03:03:42;;;;;;;9.80;8.70;;;;;;;19.30;100.00;99075.77;103616;278;174930;-75
2023/08/06 03:06:22;;;;;;;10.50;8.60;;;;;;;19.31;100.00;99069.63;103884;277;38518;-75
2023/08/06 03:08:58;;;;;;;9.80;8.90;;;;;;;19.32;100.00;99061.02;103870;277;38240;-74
2023/08/06 03:11:35;;;;;;;9.60;8.60;;;;;;;19.32;100.00;99052.55;103891;277;38518;-74
2023/08/06 03:14:09;;;;;;;9.90;8.90;;;;;;;19.32;100.00;99049.31;103915;277;39530;-75
2023/08/06 03:16:43;;;;;;;10.50;9.30;;;;;;;19.33;100.00;99046.43;103918;277;39457;-74
2023/08/06 03:19:19;;;;;;;12.10;9.50;;;;;;;19.32;100.00;99043.13;103915;277;39463;-76
2023/08/06 03:21:53;;;;;;;9.40;8.60;;;;;;;19.31;100.00;99036.73;103676;277;38284;-76
2023/08/06 03:24:31;;;;;;;10.40;9.30;;;;;;;19.32;100.00;99028.09;103958;277;38273;-74
2023/08/06 03:27:08;;;;;;;12.00;9.60;;;;;;;19.34;100.00;99021.34;103907;277;38736;-74
2023/08/06 03:29:43;;;;;;;10.20;9.30;;;;;;;19.36;100.00;99021.01;103884;277;39436;-75
2023/08/06 03:32:18;;;;;;;12.30;11.00;;;;;;;19.37;100.00;99012.64;103863;277;38254;-76
2023/08/06 03:34:52;;;;;;;12.10;10.80;;;;;;;19.38;100.00;99006.33;103944;277;39651;-76
2023/08/06 03:37:26;;;;;;;12.30;11.10;;;;;;;19.38;100.00;99001.27;103877;277;39389;-75
2023/08/06 03:40:02;;;;;;;13.10;11.50;;;;;;;19.38;100.00;98995.02;103940;277;40119;-73
2023/08/06 03:42:37;;;;;;;13.50;12.10;;;;;;;19.40;100.00;98983.34;103371;277;634275;-74
2023/08/06 03:45:15;;;;;;;16.30;11.80;;;;;;;19.44;100.00;98973.24;103791;277;38230;-75
2023/08/06 03:47:49;;;;;;;13.50;12.00;;;;;;;19.46;100.00;98962.05;103877;277;40174;-76
2023/08/06 03:50:23;;;;;;;14.80;12.50;;;;;;;19.48;100.00;98958.34;103883;277;39479;-74
2023/08/06 03:52:57;;;;;;;14.30;12.80;;;;;;;19.48;100.00;98954.92;103867;277;38241;-74
2023/08/06 03:55:33;;;;;;;14.60;13.20;;;;;;;19.48;100.00;98949.79;103842;278;38548;-76
2023/08/06 03:58:06;;;;;;;16.10;13.60;;;;;;;19.48;100.00;98947.02;103871;278;39799;-76
2023/08/06 04:00:41;;;;;;;17.80;14.20;;;;;;;19.48;100.00;98944.30;103874;278;39616;-73
2023/08/06 04:03:19;;;;;;;14.90;13.30;;;;;;;19.50;100.00;98937.76;103820;278;39811;-75
2023/08/06 04:05:53;;;;;;;17.50;13.80;;;;;;;19.54;100.00;98928.24;103833;277;38814;-74
2023/08/06 04:08:27;;;;;;;18.60;15.00;;;;;;;19.57;100.00;98917.94;103816;278;38511;-76
2023/08/06 04:11:04;;;;;;;22.10;16.90;;;;;;;19.62;100.00;98909.46;103864;278;38482;-77
2023/08/06 04:13:40;;;;;;;26.80;19.20;;;;;;;19.64;100.00;98903.77;103842;278;38284;-75
2023/08/06 04:16:14;;;;;;;29.70;21.50;;;;;;;19.66;100.00;98895.80;103832;278;38246;-73
2023/08/06 04:18:48;;;;;;;27.70;19.60;;;;;;;19.69;100.00;98893.16;103809;278;39519;-73
2023/08/06 04:21:23;;;;;;;28.70;20.70;;;;;;;19.71;100.00;98886.17;103840;278;38722;-74
2023/08/06 04:23:57;;;;;;;25.50;19.70;;;;;;;19.73;100.00;98887.83;103842;278;39463;-76
2023/08/06 04:26:31;;;;;;;19.90;17.10;;;;;;;19.75;100.00;98886.38;103807;278;38648;-75
2023/08/06 04:29:05;;;;;;;20.20;17.30;;;;;;;19.76;100.00;98887.88;103850;278;39455;-76
2023/08/06 04:31:39;;;;;;;18.60;16.50;;;;;;;19.77;100.00;98888.10;103825;278;38387;-75
2023/08/06 04:34:16;;;;;;;17.80;15.50;;;;;;;19.78;100.00;98887.08;103814;278;39714;-76
2023/08/06 04:36:52;;;;;;;19.40;16.30;;;;;;;19.81;100.00;98888.27;103823;278;39695;-76
2023/08/06 04:39:31;;;;;;;18.30;16.40;;;;;;;19.82;100.00;98884.39;103820;278;39673;-74
2023/08/06 04:42:09;;;;;;;19.20;15.20;;;;;;;19.84;100.00;98883.14;103826;278;38459;-73
2023/08/06 04:44:47;;;;;;;18.90;16.70;;;;;;;19.87;100.00;98879.69;103860;278;38440;-74
2023/08/06 04:47:22;;;;;;;17.60;15.80;;;;;;;19.91;100.00;98873.41;103815;278;39423;-73
2023/08/06 04:50:02;;;;;;;19.70;16.40;;;;;;;19.95;100.00;98868.45;103822;278;39264;-75
2023/08/06 04:52:43;;;;;;;18.80;16.10;;;;;;;19.98;100.00;98868.85;103649;280;39974;-75
2023/08/06 04:55:17;;;;;;;19.70;16.40;;;;;;;20.01;100.00;98861.25;103819;278;38592;-76
2023/08/06 04:57:55;;;;;;;17.80;15.90;;;;;;;20.04;100.00;98853.32;103804;278;38287;-77
2023/08/06 05:00:29;;;;;;;17.80;16.10;;;;;;;20.09;100.00;98847.15;103689;279;38271;-73
2023/08/06 05:03:05;;;;;;;20.80;16.60;;;;;;;20.17;100.00;98842.31;103822;278;38310;-73
2023/08/06 05:05:40;;;;;;;19.40;17.40;;;;;;;20.23;100.00;98840.13;103861;266;38702;-76
2023/08/06 05:08:18;;;;;;;19.80;17.10;;;;;;;20.27;100.00;98839.98;103827;278;39646;-76
2023/08/06 05:10:55;;;;;;;17.60;15.80;;;;;;;20.32;100.00;98839.36;103793;278;38211;-75
2023/08/06 05:13:29;;;;;;;17.60;15.80;;;;;;;20.37;100.00;98837.23;103675;279;39424;-75
2023/08/06 05:16:08;;;;;;;18.90;16.40;;;;;;;20.50;100.00;98826.66;103844;278;39736;-77
2023/08/06 05:18:45;;;;;;;18.20;16.30;;;;;;;20.64;100.00;98822.98;103824;278;39410;-75
2023/08/06 05:21:19;;;;;;;16.70;15.00;;;;;;;20.75;100.00;98820.70;103801;278;38428;-76
2023/08/06 05:23:55;;;;;;;17.90;16.00;;;;;;;20.91;100.00;98819.60;103852;278;39384;-76
2023/08/06 05:26:28;;;;;;;17.10;15.10;;;;;;;21.08;100.00;98814.41;103826;278;38408;-75
2023/08/06 05:29:02;;;;;;;18.00;15.40;;;;;;;21.29;100.00;98811.41;103841;278;38283;-76
2023/08/06 05:31:36;;;;;;;16.80;15.10;;;;;;;21.55;100.00;98810.61;103896;278;39672;-76
2023/08/06 05:34:10;;;;;;;17.10;14.10;;;;;;;21.74;100.00;98806.20;103865;278;38795;-75
2023/08/06 05:36:46;;;;;;;15.70;13.90;;;;;;;21.95;100.00;98804.86;103826;278;38334;-75
2023/08/06 05:39:20;;;;;;;15.50;13.70;;;;;;;22.29;100.00;98797.68;103879;278;39441;-75
2023/08/06 05:41:59;;;;;;;14.90;13.30;;;;;;;22.81;100.00;98790.17;103845;277;39898;-75
2023/08/06 05:44:34;;;;;;;17.50;12.80;;;;;;;23.53;100.00;98785.19;103893;278;40013;-77
2023/08/06 05:47:08;;;;;;;14.10;12.70;;;;;;;24.21;97.16;98780.88;103874;278;38383;-77
2023/08/06 05:49:42;;;;;;;12.80;10.90;;;;;;;24.88;93.87;98776.48;103829;278;38407;-77
2023/08/06 05:52:16;;;;;;;12.30;11.10;;;;;;;25.68;93.11;98773.32;103849;277;39632;-78
2023/08/06 05:54:53;;;;;;;12.40;11.00;;;;;;;26.46;87.74;98768.60;103875;277;38847;-76
2023/08/06 05:57:27;;;;;;;11.60;10.40;;;;;;;27.13;84.91;98762.90;103858;278;38390;-76
2023/08/06 06:00:01;;;;;;;11.50;10.40;;;;;;;27.77;78.95;98760.23;103863;278;38489;-75
2023/08/06 06:02:35;;;;;;;10.70;9.70;;;;;;;28.31;76.68;98753.39;103830;278;38887;-75
2023/08/06 06:05:10;;;;;;;10.60;9.60;;;;;;;28.90;73.17;98749.70;103861;278;39951;-75
2023/08/06 06:07:46;;;;;;;10.40;9.30;;;;;;;29.38;69.14;98745.41;103885;278;39383;-76
2023/08/06 06:10:20;;;;;;;13.30;9.50;;;;;;;29.83;67.77;98745.16;103874;277;39437;-76
2023/08/06 06:12:56;;;;;;;8.80;8.10;;;;;;;30.32;64.35;98748.49;103855;277;38607;-76
2023/08/06 06:15:30;;;;;;;12.40;8.60;;;;;;;30.75;62.12;98740.86;103908;277;39394;-76
2023/08/06 06:18:06;;;;;;;11.90;8.70;;;;;;;31.07;58.92;98745.73;103881;277;38237;-76
2023/08/06 06:20:40;;;;;;;9.10;8.20;;;;;;;31.21;55.73;98733.87;103875;278;38823;-74
2023/08/06 06:23:15;;;;;;;11.80;8.20;;;;;;;31.36;55.48;98734.39;103709;277;38708;-76
2023/08/06 06:25:51;;;;;;;8.80;8.00;;;;;;;31.72;55.24;98732.34;103794;279;38285;-76
2023/08/06 06:28:25;;;;;;;8.70;7.80;;;;;;;32.12;53.50;98728.02;103876;277;39683;-76
2023/08/06 06:31:04;;;;;;;9.90;7.50;;;;;;;32.30;52.82;98724.81;103972;277;40181;-78
2023/08/06 06:33:38;;;;;;;8.00;7.10;;;;;;;32.15;50.39;98719.84;103341;278;885911;-77
2023/08/06 06:36:12;;;;;;;9.10;7.50;;;;;;;31.93;51.29;98714.94;103844;278;39672;-75
2023/08/06 06:38:46;;;;;;;9.40;7.30;;;;;;;32.01;51.07;98712.99;103862;277;38720;-74
2023/08/06 06:41:23;;;;;;;8.00;7.40;;;;;;;32.00;50.60;98716.80;103858;277;40003;-75
2023/08/06 06:44:03;;;;;;;9.10;7.90;;;;;;;31.66;50.67;98720.81;103892;278;38902;-75
2023/08/06 06:46:41;;;;;;;8.30;7.60;;;;;;;31.19;50.72;98712.42;103891;277;39546;-75
2023/08/06 06:49:15;;;;;;;8.10;7.30;;;;;;;30.70;51.77;98704.44;103911;277;39309;-75
2023/08/06 06:51:49;;;;;;;9.90;7.20;;;;;;;30.94;52.89;98701.10;103207;277;886844;-75
2023/08/06 06:54:23;;;;;;;7.60;6.80;;;;;;;31.60;52.04;98701.93;103893;277;40108;-76
2023/08/06 06:56:57;;;;;;;7.70;6.80;;;;;;;32.19;51.08;98693.31;103871;277;38996;-76
2023/08/06 06:59:31;;;;;;;9.10;7.00;;;;;;;32.48;49.96;98688.15;103897;278;40084;-79
2023/08/06 07:02:09;;;;;;;7.80;6.90;;;;;;;32.43;48.20;98688.72;103903;278;39388;-78
2023/08/06 07:04:42;;;;;;;7.50;6.70;;;;;;;32.19;48.63;98688.31;103914;277;39396;-75
2023/08/06 07:07:16;;;;;;;9.90;6.90;;;;;;;31.99;49.12;98687.27;103852;278;38233;-76
2023/08/06 07:09:53;;;;;;;8.70;7.00;;;;;;;31.79;48.74;98689.93;103267;277;887930;-76
2023/08/06 07:12:26;;;;;;;11.60;7.00;;;;;;;31.53;48.85;98694.94;103786;279;39726;-75
2023/08/06 07:15:01;;;;;;;10.60;7.00;;;;;;;31.28;49.55;98693.90;103823;278;38539;-76
2023/08/06 07:17:35;;;;;;;7.70;7.00;;;;;;;31.15;49.54;98690.81;103931;277;39876;-75
2023/08/06 07:20:14;;;;;;;12.20;7.20;;;;;;;31.04;49.36;98696.64;103917;277;38281;-75
2023/08/06 07:22:47;;;;;;;;;;;;;;;31.17;49.30;98696.97;103921;277;39725;-75
2023/08/06 07:25:22;;;;;;;8.50;6.70;;;;;;;31.22;48.90;98696.30;103936;277;40319;-77
2023/08/06 07:27:56;;;;;;;7.10;6.50;;;;;;;31.32;49.69;98694.14;103916;277;39633;-77
2023/08/06 07:30:30;;;;;;;8.10;7.20;;;;;;;31.29;49.35;98694.86;103899;277;39706;-76
2023/08/06 07:33:04;;;;;;;11.10;6.80;;;;;;;31.34;49.02;98693.10;103925;277;39850;-76
2023/08/06 07:35:40;;;;;;;7.80;7.00;;;;;;;31.57;48.84;98686.89;103753;279;39002;-77
2023/08/06 07:38:15;;;;;;;9.10;6.90;;;;;;;31.81;48.92;98682.89;103872;277;39012;-78
2023/08/06 07:40:51;;;;;;;10.30;7.30;;;;;;;32.13;48.14;98687.81;103899;277;38251;-74
2023/08/06 07:43:26;;;;;;;8.50;6.60;;;;;;;32.41;47.76;98686.77;103885;277;38349;-74
2023/08/06 07:46:02;;;;;;;10.30;7.40;;;;;;;32.60;47.11;98681.23;103922;277;38662;-74
2023/08/06 07:48:39;;;;;;;9.80;7.50;;;;;;;32.91;46.94;98679.60;103836;277;39064;-75
2023/08/06 07:51:14;;;;;;;8.60;6.90;;;;;;;33.12;45.43;98686.70;103841;277;38846;-75
2023/08/06 07:53:48;;;;;;;7.40;6.70;;;;;;;33.29;44.52;98681.17;103803;279;38245;-74
2023/08/06 07:56:22;;;;;;;8.90;6.60;;;;;;;33.44;45.42;98679.80;103824;277;38739;-75
2023/08/06 07:58:58;;;;;;;8.10;7.30;;;;;;;33.44;44.79;98683.70;103836;278;39780;-74
2023/08/06 08:01:33;;;;;;;8.50;7.20;;;;;;;33.28;44.79;98683.33;103832;266;39919;-75
2023/08/06 08:04:09;;;;;;;10.30;7.20;;;;;;;33.23;45.13;98675.75;103856;277;39755;-73
2023/08/06 08:06:44;;;;;;;7.90;7.10;;;;;;;33.30;45.05;98677.88;103679;278;38509;-73
2023/08/06 08:09:18;;;;;;;8.10;7.30;;;;;;;33.55;43.78;98678.08;103865;278;38375;-73
2023/08/06 08:11:53;;;;;;;9.20;6.80;;;;;;;33.40;42.79;98672.99;103697;279;38425;-73
2023/08/06 08:14:28;;;;;;;8.40;7.00;;;;;;;33.11;44.23;98672.16;103710;279;38258;-74
2023/08/06 08:17:03;;;;;;;10.10;7.30;;;;;;;33.23;44.35;98665.20;103715;279;38406;-73
2023/08/06 08:19:39;;;;;;;9.20;7.20;;;;;;;33.83;44.14;98662.29;103722;279;40506;-75
2023/08/06 08:22:15;;;;;;;8.50;7.00;;;;;;;34.44;42.82;98659.55;103735;279;38428;-75
2023/08/06 08:24:51;;;;;;;8.30;7.10;;;;;;;34.90;42.56;98657.66;103734;279;38666;-76
2023/08/06 08:27:29;;;;;;;7.70;6.70;;;;;;;35.30;41.40;98649.50;103697;279;39634;-76
2023/08/06 08:30:05;;;;;;;8.20;6.90;;;;;;;35.61;40.26;98653.44;103707;279;39545;-75
2023/08/06 08:32:43;;;;;;;9.60;6.80;;;;;;;35.74;40.26;98646.44;103692;279;38324;-75
2023/08/06 08:35:19;;;;;;;9.40;6.80;;;;;;;36.03;39.43;98638.54;103711;279;38844;-76
2023/08/06 08:37:52;;;;;;;7.50;6.80;;;;;;;36.43;39.21;98632.73;103581;279;188773;-77
2023/08/06 08:40:30;;;;;;;7.80;7.00;;;;;;;36.86;38.72;98636.36;103739;279;38381;-74
2023/08/06 08:43:11;;;;;;;9.40;6.80;;;;;;;37.23;38.34;98628.19;103676;279;38508;-73
2023/08/06 08:45:47;;;;;;;9.70;6.70;;;;;;;37.64;36.94;98633.98;103745;279;39465;-76
2023/08/06 08:48:24;;;;;;;6.80;6.20;;;;;;;37.88;36.43;98633.66;103684;279;39042;-76
2023/08/06 08:50:57;;;;;;;9.70;6.90;;;;;;;37.83;35.10;98632.19;103735;279;38479;-76
2023/08/06 08:53:39;;;;;;;8.30;6.40;;;;;;;37.52;36.21;98631.55;103671;279;38272;-77
2023/08/06 08:56:16;;;;;;;7.50;6.70;;;;;;;37.31;36.62;98632.35;103666;279;38229;-76
2023/08/06 08:58:52;;;;;;;8.20;7.10;;;;;;;37.36;36.71;98623.55;103729;279;38231;-76
2023/08/06 09:01:32;;;;;;;7.60;6.00;;;;;;;37.43;36.30;98620.93;103698;279;38365;-77
2023/08/06 09:04:08;;;;;;;7.40;6.80;;;;;;;37.42;35.69;98617.80;103754;279;39737;-74
2023/08/06 09:06:44;;;;;;;9.90;6.90;;;;;;;37.21;36.33;98616.25;103592;279;174117;-73
2023/08/06 09:09:27;;;;;;;7.80;6.80;;;;;;;37.28;36.84;98616.02;103701;279;39593;-76
2023/08/06 09:12:03;;;;;;;6.80;6.20;;;;;;;37.41;35.60;98612.59;103736;279;39439;-76
2023/08/06 09:14:39;;;;;;;8.10;6.40;;;;;;;37.15;35.53;98612.52;103783;279;38249;-73
2023/08/06 09:17:19;;;;;;;7.20;6.50;;;;;;;36.88;35.77;98606.31;103705;279;38359;-71
2023/08/06 09:19:55;;;;;;;12.30;6.60;;;;;;;36.68;36.52;98596.00;103569;279;174044;-76
2023/08/06 09:22:38;;;;;;;13.20;6.60;;;;;;;36.69;36.64;98592.30;103704;279;39558;-76
2023/08/06 09:25:16;;;;;;;7.20;6.50;;;;;;;36.35;35.77;98591.04;103725;279;38239;-73
2023/08/06 09:27:55;;;;;;;7.80;6.30;;;;;;;36.01;36.47;98588.70;103713;279;39079;-73
2023/08/06 09:30:37;;;;;;;7.00;6.40;;;;;;;35.69;37.24;98582.23;103733;279;39417;-76
2023/08/06 09:33:15;;;;;;;7.80;6.70;;;;;;;35.41;37.67;98575.02;103742;279;39430;-77
2023/08/06 09:35:53;;;;;;;7.00;6.10;;;;;;;35.26;37.84;98584.33;103609;279;188460;-75
2023/08/06 09:38:27;;;;;;;7.30;6.60;;;;;;;34.95;37.93;98582.89;103718;279;38278;-75
2023/08/06 09:41:05;;;;;;;8.20;6.40;;;;;;;34.74;38.85;98577.34;103660;279;39980;-77
2023/08/06 09:43:46;;;;;;;7.40;6.70;;;;;;;34.54;38.90;98574.88;103744;279;39550;-77
2023/08/06 09:46:29;;;;;;;7.00;6.10;;;;;;;34.33;38.92;98575.98;103753;279;38438;-76
2023/08/06 09:49:03;;;;;;;9.40;5.90;;;;;;;34.07;39.79;98574.91;103755;279;39607;-76
2023/08/06 09:51:39;;;;;;;8.40;6.60;;;;;;;33.80;40.02;98577.06;103742;279;38249;-76
2023/08/06 09:54:16;;;;;;;8.00;5.80;;;;;;;33.41;40.60;98573.25;103749;279;39431;-76
2023/08/06 09:56:51;;;;;;;6.50;5.80;;;;;;;33.24;41.29;98577.15;103674;279;39418;-76
2023/08/06 09:59:26;;;;;;;6.50;5.80;;;;;;;33.29;41.74;98573.30;103678;279;38399;-76
2023/08/06 10:02:01;;;;;;;9.00;6.10;;;;;;;33.35;41.62;98566.79;103727;279;38236;-76
2023/08/06 10:04:37;;;;;;;6.60;6.00;;;;;;;33.40;41.99;98560.16;103726;279;38878;-76
2023/08/06 10:07:15;;;;;;;6.40;5.90;;;;;;;33.50;42.32;98550.77;103750;279;38401;-76
2023/08/06 10:10:01;;;;;;;7.40;6.10;;;;;;;33.43;42.13;98548.11;103694;278;38427;-74
2023/08/06 10:12:37;;;;;;;7.00;5.40;;;;;;;33.29;41.79;98547.63;103851;277;39439;-75
2023/08/06 10:15:19;;;;;;;6.60;5.80;;;;;;;33.12;41.88;98544.34;103905;277;39470;-75
2023/08/06 10:17:59;;;;;;;8.80;5.80;;;;;;;33.07;41.77;98544.70;103863;278;39484;-76
2023/08/06 10:20:36;;;;;;;6.50;5.80;;;;;;;32.92;41.60;98535.77;103938;277;39415;-76
2023/08/06 10:23:13;;;;;;;6.40;5.80;;;;;;;32.80;42.13;98542.50;103874;277;39436;-77
2023/08/06 10:25:56;;;;;;;9.00;6.00;;;;;;;32.69;42.33;98535.22;103916;277;38270;-75
2023/08/06 10:28:38;;;;;;;7.30;5.70;;;;;;;32.57;42.59;98530.15;103876;277;39360;-75
2023/08/06 10:31:15;;;;;;;7.60;5.60;;;;;;;32.47;42.66;98526.30;103845;277;39456;-75
2023/08/06 10:33:51;;;;;;;8.10;5.90;;;;;;;32.44;43.30;98521.20;103895;278;38262;-75
2023/08/06 10:36:26;;;;;;;6.90;5.60;;;;;;;32.41;43.28;98525.26;103707;277;40209;-75
2023/08/06 10:39:00;;;;;;;8.00;5.30;;;;;;;32.33;43.39;98523.55;103897;278;38305;-75
2023/08/06 10:41:38;;;;;;;7.90;5.40;;;;;;;32.30;43.15;98518.95;103882;267;39418;-75
2023/08/06 10:44:15;;;;;;;5.90;5.40;;;;;;;32.17;42.56;98519.84;103858;277;38544;-77
2023/08/06 10:46:50;;;;;;;6.10;5.30;;;;;;;32.07;42.59;98515.77;103851;277;39890;-77
2023/08/06 10:49:27;;;;;;;9.50;5.30;;;;;;;32.02;42.97;98511.52;103909;277;38713;-75
2023/08/06 10:52:03;;;;;;;5.80;5.00;;;;;;;31.95;42.85;98502.94;103843;277;39643;-75
2023/08/06 10:54:40;;;;;;;6.50;5.70;;;;;;;31.80;43.11;98503.45;103827;267;39444;-77
2023/08/06 10:57:15;;;;;;;5.80;5.30;;;;;;;31.65;43.28;98502.50;103861;277;38412;-77
2023/08/06 10:59:49;;;;;;;7.10;5.80;;;;;;;31.49;43.34;98504.38;103905;277;38267;-76
2023/08/06 11:02:25;;;;;;;6.20;5.00;;;;;;;31.29;43.38;98498.17;103855;278;38637;-76
2023/08/06 11:05:06;;;;;;;6.60;5.50;;;;;;;31.16;44.05;98487.91;103703;278;40871;-75
2023/08/06 11:07:43;;;;;;;5.80;5.30;;;;;;;31.23;44.19;98483.48;103881;277;38219;-75
2023/08/06 11:10:17;;;;;;;8.80;4.90;;;;;;;31.25;43.97;98476.03;103868;278;39414;-75
2023/08/06 11:12:52;;;;;;;8.00;5.60;;;;;;;31.12;43.87;98478.91;103885;277;39399;-75
2023/08/06 11:15:28;;;;;;;5.80;5.30;;;;;;;31.02;44.11;98473.63;103913;277;39465;-74
2023/08/06 11:18:04;;;;;;;5.90;5.10;;;;;;;30.99;44.31;98471.18;103872;277;38711;-75
2023/08/06 11:20:40;;;;;;;6.20;5.00;;;;;;;30.92;44.31;98463.95;103858;277;39431;-75
2023/08/06 11:23:15;;;;;;;5.30;4.90;;;;;;;30.83;44.67;98457.70;103868;277;39641;-75
2023/08/06 11:25:52;;;;;;;8.20;4.90;;;;;;;30.72;44.65;98451.77;103877;277;40070;-76
2023/08/06 11:28:29;;;;;;;7.90;4.90;;;;;;;30.63;44.95;98457.21;103873;277;38348;-75
2023/08/06 11:31:09;;;;;;;5.90;5.30;;;;;;;30.53;44.98;98455.27;103803;278;39558;-76
2023/08/06 11:33:43;;;;;;;7.00;5.00;;;;;;;30.54;45.21;98449.81;103914;277;39403;-76
2023/08/06 11:36:19;;;;;;;6.90;5.30;;;;;;;30.55;45.23;98442.03;103745;278;39467;-77
2023/08/06 11:38:56;;;;;;;5.90;4.90;;;;;;;30.49;45.30;98444.59;103926;277;38497;-76
2023/08/06 11:41:31;;;;;;;6.90;4.70;;;;;;;30.43;45.57;98443.36;103927;277;39679;-75
2023/08/06 11:44:06;;;;;;;5.70;4.70;;;;;;;30.33;45.34;98438.27;103308;277;724435;-74
2023/08/06 11:47:06;;;;;;;6.30;4.90;;;;;;;30.24;45.60;98439.39;103876;277;38239;-74
2023/08/06 11:49:49;;;;;;;5.50;4.70;;;;;;;30.34;45.93;98441.40;103787;277;39408;-76
2023/08/06 11:52:27;;;;;;;5.50;4.60;;;;;;;30.51;45.92;98425.58;103907;277;38245;-77
2023/08/06 11:55:10;;;;;;;6.60;4.70;;;;;;;30.65;45.85;98420.34;103893;277;38247;-76
2023/08/06 11:57:50;;;;;;;5.70;4.90;;;;;;;30.76;46.05;98414.40;103881;277;38204;-75
2023/08/06 12:00:26;;;;;;;5.40;4.80;;;;;;;30.87;45.58;98404.69;103719;278;38249;-75
2023/08/06 12:03:03;;;;;;;5.60;5.10;;;;;;;31.02;45.67;98401.06;103857;278;38786;-73
2023/08/06 12:05:38;;;;;;;6.00;5.10;;;;;;;31.15;45.52;98399.21;103850;278;38250;-72